Time;durP1;ratioP1;P1;durP2;ratioP2;P2;SDS_P1;SDS_P2;PMS_P1;PMS_P2;Temp;Humidity;BMP_temperature;BMP_pressure;BME280_temperature;BME280_humidity;BME280_pressure;Samples;Min_cycle;Max_cycle;Signal;HPM_P1;HPM_P2
2020/12/29 00:01:18;;;;;;;1.17;1.08;;;3.60;95.00;;;;;;5090286;28;20206;-82
2020/12/29 00:03:45;;;;;;;1.52;1.42;;;3.60;95.20;;;;;;5073720;28;20286;-83
2020/12/29 00:06:12;;;;;;;1.55;1.45;;;3.80;95.70;;;;;;5092389;28;20241;-82
2020/12/29 00:08:38;;;;;;;1.60;1.50;;;3.80;96.10;;;;;;5091132;28;20219;-83
2020/12/29 00:11:05;;;;;;;1.67;1.58;;;3.70;96.40;;;;;;5093296;28;20660;-83
2020/12/29 00:13:31;;;;;;;1.67;1.48;;;3.60;96.80;;;;;;5086732;28;20203;-82
2020/12/29 00:15:57;;;;;;;1.55;1.45;;;3.60;97.40;;;;;;5073311;28;20253;-83
2020/12/29 00:18:24;;;;;;;1.70;1.60;;;3.50;97.10;;;;;;5089698;28;20703;-82
2020/12/29 00:20:50;;;;;;;1.30;1.20;;;3.50;97.40;;;;;;5091854;28;20202;-83
2020/12/29 00:23:17;;;;;;;1.52;1.40;;;3.40;97.90;;;;;;5091877;28;20234;-83
2020/12/29 00:25:44;;;;;;;1.40;1.20;;;3.40;98.30;;;;;;5089947;28;20209;-83
2020/12/29 00:28:10;;;;;;;1.27;1.17;;;3.50;98.40;;;;;;5092460;28;20213;-82
2020/12/29 00:30:37;;;;;;;0.85;0.80;;;3.50;98.10;;;;;;5088356;28;20671;-83
2020/12/29 00:33:03;;;;;;;1.08;1.08;;;3.40;97.90;;;;;;5074394;28;20191;-83
2020/12/29 00:35:29;;;;;;;1.15;1.15;;;3.50;98.10;;;;;;5083229;28;20229;-83
2020/12/29 00:37:56;;;;;;;1.25;1.15;;;3.50;98.30;;;;;;5090518;28;20273;-83
2020/12/29 00:40:23;;;;;;;1.20;1.10;;;3.60;98.10;;;;;;5084952;28;20203;-83
2020/12/29 00:42:49;;;;;;;1.42;1.33;;;3.60;98.60;;;;;;5087944;28;20664;-83
2020/12/29 00:45:16;;;;;;;0.90;0.90;;;3.70;98.50;;;;;;5085795;28;20652;-83
2020/12/29 00:47:42;;;;;;;0.80;0.80;;;3.70;98.30;;;;;;5092302;28;20206;-83
2020/12/29 00:50:08;;;;;;;0.88;0.88;;;3.70;97.90;;;;;;5092708;28;20199;-83
2020/12/29 00:52:35;;;;;;;0.70;0.70;;;3.70;98.10;;;;;;5092133;28;20199;-84
2020/12/29 00:55:01;;;;;;;0.93;0.93;;;3.70;97.80;;;;;;5083531;28;20200;-83
2020/12/29 00:57:28;;;;;;;0.77;0.75;;;3.70;97.90;;;;;;5084085;28;20850;-83
2020/12/29 00:59:55;;;;;;;0.90;0.90;;;3.80;98.10;;;;;;5084761;28;20199;-83
2020/12/29 01:02:21;;;;;;;2.97;1.00;;;3.80;97.90;;;;;;5071689;28;20218;-83
2020/12/29 01:04:48;;;;;;;1.75;0.73;;;3.80;97.90;;;;;;5075565;28;20219;-83
2020/12/29 01:07:14;;;;;;;0.95;0.88;;;3.80;98.50;;;;;;5075451;28;20209;-83
2020/12/29 01:09:41;;;;;;;1.15;1.05;;;3.80;98.80;;;;;;5088576;28;20629;-83
2020/12/29 01:12:07;;;;;;;1.10;1.00;;;3.70;99.40;;;;;;5091919;28;20706;-83
2020/12/29 01:14:35;;;;;;;1.00;1.00;;;3.80;99.40;;;;;;5086714;28;20230;-84
2020/12/29 01:17:01;;;;;;;1.00;0.95;;;3.70;99.90;;;;;;5092351;28;20219;-84
2020/12/29 01:19:27;;;;;;;0.98;0.90;;;3.80;99.90;;;;;;5084041;28;20692;-84
2020/12/29 01:21:54;;;;;;;1.17;1.08;;;3.90;99.90;;;;;;5092468;28;20229;-85
2020/12/29 01:24:21;;;;;;;1.13;1.00;;;3.70;99.90;;;;;;5087587;28;20191;-83
2020/12/29 01:26:47;;;;;;;0.80;0.80;;;3.70;99.90;;;;;;5091906;28;20225;-83
2020/12/29 01:29:14;;;;;;;0.77;0.75;;;3.70;99.90;;;;;;5086366;28;20203;-83
2020/12/29 01:31:41;;;;;;;0.75;0.75;;;3.60;99.90;;;;;;5072014;28;20277;-84
2020/12/29 01:34:07;;;;;;;1.20;0.77;;;3.80;99.90;;;;;;5074994;28;20206;-84
2020/12/29 01:36:34;;;;;;;1.20;1.10;;;3.70;99.90;;;;;;5102999;28;20204;-83
2020/12/29 01:39:00;;;;;;;1.13;1.02;;;3.80;99.90;;;;;;5100482;28;20199;-84
2020/12/29 01:41:27;;;;;;;1.15;0.88;;;3.70;99.90;;;;;;5071718;28;20206;-84
2020/12/29 01:43:53;;;;;;;0.90;0.90;;;3.60;99.90;;;;;;5073612;28;20195;-84
2020/12/29 01:46:20;;;;;;;2.08;1.13;;;3.80;99.90;;;;;;5091887;28;20686;-84
2020/12/29 01:48:47;;;;;;;0.80;0.80;;;3.60;99.90;;;;;;5078799;28;20280;-84
2020/12/29 01:51:35;;;;;;;2.20;1.10;;;3.60;99.90;;;;;;5071665;28;20633;-84
2020/12/29 01:54:05;;;;;;;0.85;0.70;;;3.80;99.90;;;;;;5079196;28;20192;-85
2020/12/29 01:56:38;;;;;;;1.10;1.00;;;4.00;99.90;;;;;;5089466;28;20746;-85
2020/12/29 01:59:08;;;;;;;1.42;1.27;;;3.80;99.90;;;;;;5080720;28;20214;-85
2020/12/29 02:01:37;;;;;;;0.70;0.70;;;3.90;99.90;;;;;;5091727;28;20686;-85
2020/12/29 02:04:06;;;;;;;0.80;0.80;;;4.00;99.90;;;;;;5079356;28;20663;-85
2020/12/29 02:06:34;;;;;;;0.70;0.70;;;3.90;99.90;;;;;;5091627;28;20245;-85
2020/12/29 02:09:04;;;;;;;0.98;0.98;;;3.90;99.90;;;;;;5074654;28;20660;-84
2020/12/29 02:11:37;;;;;;;0.93;0.80;;;3.90;99.90;;;;;;5088251;28;20191;-85
2020/12/29 02:14:08;;;;;;;1.80;1.13;;;4.00;99.90;;;;;;5088853;28;20195;-85
2020/12/29 02:16:37;;;;;;;0.90;0.85;;;3.90;99.90;;;;;;5069422;28;20199;-85
2020/12/29 02:19:07;;;;;;;0.90;0.90;;;3.90;99.90;;;;;;5072913;28;20253;-85
2020/12/29 02:21:35;;;;;;;1.05;0.70;;;3.90;99.90;;;;;;5082283;28;20192;-84
2020/12/29 02:24:04;;;;;;;0.55;0.55;;;3.80;99.90;;;;;;5073997;28;20304;-84
2020/12/29 02:26:34;;;;;;;0.70;0.70;;;4.00;99.90;;;;;;5071255;28;20219;-84
2020/12/29 02:29:03;;;;;;;0.70;0.70;;;3.90;99.90;;;;;;5071556;28;20218;-84
2020/12/29 02:31:30;;;;;;;0.93;0.82;;;4.00;99.90;;;;;;5088346;28;20197;-83
2020/12/29 02:33:58;;;;;;;0.50;0.50;;;4.10;99.90;;;;;;5085164;28;20296;-84
2020/12/29 02:36:25;;;;;;;0.57;0.50;;;4.00;99.90;;;;;;5074814;28;20559;-84
2020/12/29 02:38:53;;;;;;;0.88;0.60;;;4.10;99.90;;;;;;5074344;28;20332;-84
2020/12/29 02:41:21;;;;;;;0.70;0.70;;;4.00;99.90;;;;;;5088194;28;20233;-83
2020/12/29 02:43:49;;;;;;;0.50;0.50;;;4.10;99.90;;;;;;5087291;28;20202;-84
2020/12/29 02:46:17;;;;;;;0.50;0.50;;;4.10;99.90;;;;;;5086241;28;20248;-83
2020/12/29 02:48:44;;;;;;;0.60;0.45;;;4.00;99.90;;;;;;5076468;28;20566;-83
2020/12/29 02:51:14;;;;;;;0.70;0.70;;;4.00;99.90;;;;;;5088994;28;20198;-83
2020/12/29 02:53:41;;;;;;;0.50;0.50;;;4.00;99.90;;;;;;5090987;28;20229;-83
2020/12/29 02:56:07;;;;;;;0.40;0.40;;;4.00;99.90;;;;;;5070347;28;20226;-84
2020/12/29 02:58:34;;;;;;;1.27;0.68;;;4.00;99.90;;;;;;5080930;28;20583;-85
2020/12/29 03:01:01;;;;;;;0.50;0.47;;;4.00;99.90;;;;;;5088130;28;20556;-84
2020/12/29 03:03:27;;;;;;;0.50;0.40;;;4.00;99.90;;;;;;5089169;28;20408;-85
2020/12/29 03:05:54;;;;;;;1.95;0.70;;;4.20;99.90;;;;;;5083822;28;20203;-84
2020/12/29 03:08:20;;;;;;;0.60;0.60;;;4.00;99.90;;;;;;5089922;28;20562;-85
2020/12/29 03:10:46;;;;;;;0.50;0.50;;;4.10;99.90;;;;;;5089264;28;20191;-83
2020/12/29 03:13:13;;;;;;;1.20;0.40;;;4.10;99.90;;;;;;5088083;28;20248;-82
2020/12/29 03:15:40;;;;;;;1.33;0.73;;;4.00;99.90;;;;;;5084625;28;20659;-82
2020/12/29 03:18:07;;;;;;;0.50;0.45;;;3.90;99.90;;;;;;5072459;28;20231;-83
2020/12/29 03:20:33;;;;;;;0.65;0.63;;;3.80;99.90;;;;;;5073860;28;20199;-83
2020/12/29 03:23:00;;;;;;;0.65;0.50;;;3.70;99.90;;;;;;5070319;28;20210;-83
2020/12/29 03:25:26;;;;;;;0.40;0.40;;;3.80;99.90;;;;;;5084772;28;20191;-83
2020/12/29 03:27:52;;;;;;;1.05;0.60;;;3.80;99.90;;;;;;5086562;28;20213;-83
2020/12/29 03:30:19;;;;;;;1.10;0.68;;;3.70;99.90;;;;;;5092556;28;20190;-83
2020/12/29 03:32:46;;;;;;;0.40;0.40;;;3.70;99.90;;;;;;5093158;28;20198;-83
2020/12/29 03:35:13;;;;;;;0.40;0.40;;;4.40;99.90;;;;;;5078071;28;20203;-83
2020/12/29 03:37:39;;;;;;;0.57;0.57;;;3.80;99.90;;;;;;5073282;28;20698;-84
2020/12/29 03:40:05;;;;;;;0.50;0.43;;;3.90;99.90;;;;;;5092426;28;20221;-84
2020/12/29 03:42:33;;;;;;;0.45;0.45;;;3.70;99.90;;;;;;5074633;28;20633;-84
2020/12/29 03:44:59;;;;;;;0.93;0.50;;;3.60;99.90;;;;;;5077725;28;20286;-84
2020/12/29 03:47:25;;;;;;;0.77;0.77;;;3.70;99.90;;;;;;5105537;28;20209;-83
2020/12/29 03:49:53;;;;;;;0.50;0.50;;;3.70;99.90;;;;;;5097388;28;20208;-84
2020/12/29 03:52:19;;;;;;;0.60;0.60;;;3.60;99.90;;;;;;5087377;28;20598;-84
2020/12/29 03:54:46;;;;;;;0.50;0.50;;;3.70;99.90;;;;;;5080540;28;20199;-84
2020/12/29 03:57:12;;;;;;;0.80;0.80;;;3.60;99.90;;;;;;5089927;28;20203;-84
2020/12/29 03:59:38;;;;;;;1.15;0.60;;;3.60;99.90;;;;;;5084136;28;20222;-84
2020/12/29 04:02:05;;;;;;;1.67;0.47;;;3.60;99.90;;;;;;5093063;28;20240;-84
2020/12/29 04:04:32;;;;;;;0.60;0.60;;;3.60;99.90;;;;;;5093266;28;20212;-85
2020/12/29 04:06:59;;;;;;;0.47;0.47;;;3.60;99.90;;;;;;5092574;28;20575;-84
2020/12/29 04:09:30;;;;;;;0.95;0.70;;;3.70;99.90;;;;;;5091939;28;20183;-84
2020/12/29 04:11:57;;;;;;;3.45;0.73;;;3.70;99.90;;;;;;5093840;28;20668;-84
2020/12/29 04:14:23;;;;;;;0.70;0.57;;;3.70;99.90;;;;;;5086098;28;20211;-84
2020/12/29 04:16:50;;;;;;;0.55;0.55;;;3.70;99.90;;;;;;5079892;28;20195;-84
2020/12/29 04:19:16;;;;;;;0.50;0.50;;;3.80;99.90;;;;;;5091743;28;20214;-85
2020/12/29 04:21:43;;;;;;;0.50;0.50;;;3.70;99.90;;;;;;5092954;28;20659;-85
2020/12/29 04:24:10;;;;;;;0.50;0.50;;;3.80;99.90;;;;;;5084710;28;20204;-85
2020/12/29 04:26:36;;;;;;;0.60;0.50;;;3.70;99.90;;;;;;5093614;28;20683;-85
2020/12/29 04:29:03;;;;;;;0.40;0.40;;;3.80;99.90;;;;;;5086582;28;20218;-85
2020/12/29 04:31:29;;;;;;;0.50;0.50;;;3.80;99.90;;;;;;5093283;28;20269;-85
2020/12/29 04:33:56;;;;;;;0.88;0.50;;;3.90;99.90;;;;;;5082231;28;20222;-85
2020/12/29 04:36:22;;;;;;;0.45;0.45;;;3.60;99.90;;;;;;5072257;28;20584;-85
2020/12/29 04:38:49;;;;;;;1.65;0.65;;;3.60;99.90;;;;;;5082831;28;20246;-85
2020/12/29 04:41:16;;;;;;;0.75;0.50;;;3.70;99.90;;;;;;5085594;28;20202;-85
2020/12/29 04:43:43;;;;;;;0.85;0.80;;;3.70;99.90;;;;;;5093204;28;20194;-85
2020/12/29 04:46:10;;;;;;;0.85;0.60;;;3.70;99.90;;;;;;5092784;28;20217;-84
2020/12/29 04:48:37;;;;;;;1.50;0.70;;;3.60;99.90;;;;;;5087773;28;20225;-85
2020/12/29 04:51:05;;;;;;;0.80;0.68;;;3.50;99.90;;;;;;5084485;28;20282;-84
2020/12/29 04:53:34;;;;;;;1.73;0.77;;;3.50;99.90;;;;;;5074975;28;20720;-84
2020/12/29 04:56:05;;;;;;;1.33;0.70;;;3.70;99.90;;;;;;5093033;28;20203;-84
2020/12/29 04:58:33;;;;;;;0.60;0.50;;;3.70;99.90;;;;;;5072441;28;20263;-83
2020/12/29 05:01:04;;;;;;;0.82;0.70;;;3.60;99.90;;;;;;5087322;28;20656;-83
2020/12/29 05:03:41;;;;;;;0.40;0.40;;;3.50;99.90;;;;;;5086246;28;20187;-83
2020/12/29 05:06:09;;;;;;;1.05;0.57;;;3.50;99.90;;;;;;5078260;28;20203;-83
2020/12/29 05:08:36;;;;;;;0.68;0.63;;;3.60;99.90;;;;;;5074576;28;20675;-83
2020/12/29 05:11:02;;;;;;;0.50;0.50;;;3.50;99.90;;;;;;5090243;28;20230;-83
2020/12/29 05:13:29;;;;;;;0.50;0.32;;;3.50;99.90;;;;;;5073272;28;20246;-83
2020/12/29 05:15:56;;;;;;;0.50;0.50;;;3.50;99.90;;;;;;5091568;28;20224;-83
2020/12/29 05:18:22;;;;;;;3.58;0.60;;;3.50;99.90;;;;;;5090325;28;20611;-83
2020/12/29 05:20:51;;;;;;;1.00;0.75;;;3.40;99.90;;;;;;5075690;28;20199;-83
2020/12/29 05:23:18;;;;;;;0.60;0.60;;;3.40;99.90;;;;;;5087043;28;20195;-83
2020/12/29 05:25:46;;;;;;;0.60;0.60;;;3.50;99.90;;;;;;5080799;28;20240;-83
2020/12/29 05:28:14;;;;;;;0.60;0.60;;;3.50;99.90;;;;;;5091351;28;20214;-83
2020/12/29 05:30:41;;;;;;;0.43;0.43;;;3.40;99.90;;;;;;5086767;28;20195;-83
2020/12/29 05:33:11;;;;;;;1.15;0.60;;;3.30;99.90;;;;;;5090845;28;20255;-83
2020/12/29 05:35:38;;;;;;;1.40;0.50;;;3.30;99.90;;;;;;5084383;28;20226;-82
2020/12/29 05:38:07;;;;;;;1.88;1.45;;;3.20;99.90;;;;;;5087446;28;20235;-83
2020/12/29 05:40:35;;;;;;;0.60;0.50;;;3.20;99.90;;;;;;5084865;28;20730;-83
2020/12/29 05:43:02;;;;;;;0.60;0.60;;;3.30;99.90;;;;;;5088993;28;20230;-83
2020/12/29 05:45:30;;;;;;;0.73;0.73;;;3.40;99.90;;;;;;5087442;28;20211;-83
2020/12/29 05:47:58;;;;;;;0.47;0.47;;;3.40;99.90;;;;;;5089930;28;20226;-83
2020/12/29 05:50:26;;;;;;;1.75;0.47;;;3.60;99.90;;;;;;5084289;28;20191;-84
2020/12/29 05:52:55;;;;;;;0.50;0.40;;;3.30;99.90;;;;;;5072971;28;20214;-83
2020/12/29 05:55:22;;;;;;;1.30;0.80;;;3.30;99.90;;;;;;5084957;28;20219;-83
2020/12/29 05:58:02;;;;;;;0.40;0.40;;;3.20;99.90;;;;;;5089773;28;20226;-83
2020/12/29 06:00:29;;;;;;;0.52;0.52;;;3.30;99.90;;;;;;5086172;28;20206;-83
2020/12/29 06:02:56;;;;;;;0.57;0.57;;;3.40;99.90;;;;;;5089665;28;20247;-83
2020/12/29 06:05:28;;;;;;;0.70;0.65;;;3.40;99.90;;;;;;5079736;28;20225;-84
2020/12/29 06:07:56;;;;;;;0.80;0.80;;;3.40;99.90;;;;;;5070789;28;20206;-84
2020/12/29 06:10:24;;;;;;;2.58;2.38;;;3.40;99.90;;;;;;5086301;28;20197;-84
2020/12/29 06:12:53;;;;;;;1.52;0.68;;;3.40;99.90;;;;;;5091483;28;20194;-83
2020/12/29 06:15:25;;;;;;;0.80;0.80;;;3.60;99.90;;;;;;5089796;28;20209;-84
2020/12/29 06:17:59;;;;;;;1.40;0.70;;;3.40;99.90;;;;;;5090312;28;20252;-84
2020/12/29 06:20:37;;;;;;;0.50;0.50;;;3.30;99.90;;;;;;5077244;28;20611;-84
2020/12/29 06:23:05;;;;;;;1.25;0.60;;;3.30;99.90;;;;;;5071117;28;20198;-84
2020/12/29 06:25:33;;;;;;;1.27;0.60;;;3.40;99.90;;;;;;5083033;28;20683;-84
2020/12/29 06:28:02;;;;;;;0.98;0.60;;;3.30;99.90;;;;;;5090612;28;20207;-84
2020/12/29 06:30:29;;;;;;;1.27;0.75;;;3.20;99.90;;;;;;5074919;28;20207;-84
2020/12/29 06:32:57;;;;;;;0.50;0.50;;;3.10;99.90;;;;;;5084767;28;20233;-84
2020/12/29 06:35:23;;;;;;;0.85;0.85;;;3.10;99.90;;;;;;5080658;28;20231;-84
2020/12/29 06:38:05;;;;;;;1.67;1.58;;;3.10;99.90;;;;;;5083438;28;20226;-84
2020/12/29 06:40:33;;;;;;;1.50;0.68;;;3.20;99.90;;;;;;5086156;28;20724;-84
2020/12/29 06:42:59;;;;;;;0.98;0.68;;;3.20;99.90;;;;;;5090873;28;20202;-84
2020/12/29 06:45:33;;;;;;;1.75;0.90;;;3.20;99.90;;;;;;5088375;28;20190;-84
2020/12/29 06:48:01;;;;;;;2.60;1.05;;;3.10;99.90;;;;;;5076206;28;20269;-84
2020/12/29 06:50:29;;;;;;;1.10;1.00;;;3.10;99.90;;;;;;5077052;28;20199;-84
2020/12/29 06:52:58;;;;;;;1.67;0.55;;;3.10;99.90;;;;;;5090776;28;20183;-84
2020/12/29 06:55:29;;;;;;;0.60;0.60;;;3.00;99.90;;;;;;5079143;28;20195;-84
2020/12/29 06:57:55;;;;;;;2.42;1.10;;;3.10;99.90;;;;;;5070015;28;20277;-85
2020/12/29 07:00:24;;;;;;;2.28;0.90;;;3.20;99.90;;;;;;5086846;28;20572;-84
2020/12/29 07:02:53;;;;;;;1.63;0.90;;;3.10;99.90;;;;;;5074488;28;20204;-84
2020/12/29 07:05:21;;;;;;;0.85;0.85;;;3.10;99.90;;;;;;5083965;28;20199;-84
2020/12/29 07:07:59;;;;;;;1.08;0.98;;;3.10;99.90;;;;;;5086561;28;20191;-84
2020/12/29 07:10:35;;;;;;;1.65;0.90;;;3.10;99.90;;;;;;5082129;28;20905;-84
2020/12/29 07:13:06;;;;;;;0.65;0.65;;;3.20;99.90;;;;;;5088953;28;20233;-83
2020/12/29 07:15:45;;;;;;;7.40;1.00;;;4.30;99.90;;;;;;5086203;28;20273;-86
2020/12/29 07:18:11;;;;;;;1.20;0.80;;;3.40;99.90;;;;;;5090235;28;20718;-88
2020/12/29 07:20:40;;;;;;;1.67;0.80;;;4.40;99.90;;;;;;5090854;28;20190;-88
2020/12/29 07:23:09;;;;;;;1.75;1.00;;;3.30;99.90;;;;;;5078940;28;20630;-88
2020/12/29 07:25:37;;;;;;;1.40;1.02;;;3.20;99.90;;;;;;5070749;28;20199;-88
2020/12/29 07:28:05;;;;;;;0.80;0.80;;;3.20;99.90;;;;;;5071893;28;20722;-88
2020/12/29 07:30:33;;;;;;;2.05;1.10;;;3.30;99.90;;;;;;5084706;28;20234;-88
2020/12/29 07:33:01;;;;;;;1.20;1.10;;;3.90;99.90;;;;;;5090948;28;20704;-87
2020/12/29 07:35:30;;;;;;;1.67;1.52;;;3.50;99.90;;;;;;5077083;28;20199;-88
2020/12/29 07:37:57;;;;;;;1.00;0.80;;;4.00;99.90;;;;;;5070135;28;20227;-87
2020/12/29 07:40:26;;;;;;;1.73;0.98;;;3.60;99.90;;;;;;5072497;28;20191;-88
2020/12/29 07:42:53;;;;;;;1.05;1.00;;;3.70;99.90;;;;;;5078594;28;20195;-87
2020/12/29 07:45:21;;;;;;;1.45;1.33;;;3.90;99.90;;;;;;5087005;28;20198;-88
2020/12/29 07:47:56;;;;;;;3.53;1.25;;;3.80;99.90;;;;;;5078073;28;20268;-88
2020/12/29 07:50:22;;;;;;;7.18;1.30;;;3.80;99.90;;;;;;5077286;28;20190;-89
2020/12/29 07:52:49;;;;;;;1.15;1.02;;;3.80;99.90;;;;;;5093145;28;20198;-89
2020/12/29 07:55:16;;;;;;;1.30;1.20;;;5.10;99.90;;;;;;5093379;28;20670;-88
2020/12/29 07:57:45;;;;;;;1.52;1.13;;;3.80;99.90;;;;;;5077538;28;20215;-88
2020/12/29 08:00:14;;;;;;;1.13;1.02;;;3.00;99.90;;;;;;5073883;28;20207;-89
2020/12/29 08:02:41;;;;;;;2.03;1.30;;;3.80;99.90;;;;;;5078598;28;20191;-89
2020/12/29 08:05:08;;;;;;;3.42;1.65;;;5.10;99.90;;;;;;5080903;28;20743;-88
2020/12/29 08:07:35;;;;;;;1.85;1.25;;;3.80;99.90;;;;;;5073152;28;20203;-89
2020/12/29 08:10:01;;;;;;;2.22;1.52;;;4.00;99.90;;;;;;5073559;28;20558;-89
2020/12/29 08:12:28;;;;;;;2.50;1.13;;;4.70;99.90;;;;;;5079309;28;20190;-89
2020/12/29 08:14:55;;;;;;;1.50;1.20;;;4.10;99.90;;;;;;5087220;28;20286;-88
2020/12/29 08:17:22;;;;;;;1.30;0.90;;;4.30;99.90;;;;;;5092828;28;20210;-88
2020/12/29 08:20:01;;;;;;;1.73;1.20;;;4.20;99.90;;;;;;5081434;28;20267;-89
2020/12/29 08:22:29;;;;;;;2.67;1.10;;;4.10;99.90;;;;;;5089531;28;20197;-89
2020/12/29 08:24:56;;;;;;;1.33;1.23;;;4.40;99.90;;;;;;5089654;28;20202;-89
2020/12/29 08:27:23;;;;;;;2.45;1.30;;;4.20;99.90;;;;;;5092529;28;20632;-88
2020/12/29 08:29:51;;;;;;;2.20;1.67;;;4.20;99.90;;;;;;5094306;28;20202;-88
2020/12/29 08:32:22;;;;;;;1.73;1.20;;;5.50;99.90;;;;;;5083911;28;20198;-87
2020/12/29 08:34:49;;;;;;;1.92;1.08;;;4.60;99.90;;;;;;5078788;28;20260;-88
2020/12/29 08:37:23;;;;;;;1.00;0.90;;;4.50;99.90;;;;;;5093970;28;20230;-87
2020/12/29 08:40:06;;;;;;;1.20;1.10;;;4.40;99.90;;;;;;5091221;28;20259;-88
2020/12/29 08:42:36;;;;;;;4.55;1.55;;;4.30;99.90;;;;;;5091817;28;20702;-88
2020/12/29 08:45:07;;;;;;;1.67;1.25;;;4.60;99.90;;;;;;5084563;28;20302;-87
2020/12/29 08:47:34;;;;;;;3.80;1.45;;;4.40;99.90;;;;;;5079103;28;20199;-88
2020/12/29 08:50:23;;;;;;;2.60;1.05;;;4.60;99.90;;;;;;5091979;28;20281;-87
2020/12/29 08:52:53;;;;;;;4.13;1.30;;;4.60;99.90;;;;;;5093076;28;20206;-87
2020/12/29 08:55:35;;;;;;;2.40;1.25;;;4.40;99.90;;;;;;5089478;28;20195;-87
2020/12/29 08:58:03;;;;;;;3.50;1.40;;;4.50;99.90;;;;;;5077135;28;20219;-86
2020/12/29 09:00:35;;;;;;;1.83;1.40;;;4.30;99.90;;;;;;5094906;28;20301;-88
2020/12/29 09:06:10;;;;;;;1.08;1.00;;;4.00;99.90;;;;;;5088181;28;20195;-89
2020/12/29 09:08:37;;;;;;;1.10;1.00;;;3.90;99.90;;;;;;5089948;28;20249;-87
2020/12/29 09:11:11;;;;;;;1.38;0.98;;;3.80;99.90;;;;;;5089130;28;20187;-88
2020/12/29 09:13:38;;;;;;;1.05;1.05;;;3.60;99.90;;;;;;5089825;28;20653;-88
2020/12/29 09:16:13;;;;;;;1.00;1.00;;;3.60;99.90;;;;;;5092699;28;20584;-88
2020/12/29 09:18:42;;;;;;;1.27;1.10;;;3.60;99.90;;;;;;5081816;28;20236;-89
2020/12/29 09:21:22;;;;;;;1.98;1.70;;;3.50;99.90;;;;;;5092126;28;20205;-88
2020/12/29 09:24:01;;;;;;;0.90;0.90;;;4.30;99.90;;;;;;5084027;28;20197;-88
2020/12/29 09:26:28;;;;;;;1.10;0.82;;;4.00;99.90;;;;;;5088697;28;20187;-88
2020/12/29 09:28:57;;;;;;;1.05;0.82;;;3.30;99.90;;;;;;5091631;28;20202;-89
2020/12/29 09:31:27;;;;;;;0.80;0.80;;;3.10;99.90;;;;;;5094231;28;20702;-88
2020/12/29 09:33:55;;;;;;;1.25;0.77;;;3.00;99.90;;;;;;5090962;28;20238;-90
2020/12/29 09:36:24;;;;;;;1.70;1.60;;;3.20;99.90;;;;;;5091537;28;20405;-91
2020/12/29 09:38:55;;;;;;;3.08;1.42;;;3.60;99.90;;;;;;5095235;28;20210;-93
2020/12/29 09:41:28;;;;;;;1.30;1.20;;;3.70;99.90;;;;;;5094589;28;20199;-92
2020/12/29 09:43:54;;;;;;;1.48;1.08;;;4.40;99.90;;;;;;5095460;28;20289;-91
2020/12/29 09:46:24;;;;;;;1.60;1.23;;;4.20;99.90;;;;;;5091270;28;20526;-91
2020/12/29 09:49:06;;;;;;;1.10;1.10;;;4.10;99.90;;;;;;5095986;28;20229;-92
2020/12/29 09:51:34;;;;;;;1.10;1.00;;;4.30;99.90;;;;;;5097681;28;20198;-91
2020/12/29 09:54:08;;;;;;;2.00;1.30;;;4.20;99.90;;;;;;5099705;28;20195;-91
2020/12/29 09:56:35;;;;;;;1.25;1.10;;;4.40;99.90;;;;;;5088031;28;20274;-91
2020/12/29 09:59:06;;;;;;;2.03;1.05;;;4.30;99.90;;;;;;5090654;28;20323;-91
2020/12/29 10:01:32;;;;;;;1.02;0.95;;;5.20;99.90;;;;;;5087414;28;20210;-89
2020/12/29 10:04:11;;;;;;;0.90;0.90;;;5.10;99.90;;;;;;5090813;28;20667;-91
2020/12/29 10:06:38;;;;;;;1.55;1.15;;;5.10;99.90;;;;;;5097250;28;20218;-91
2020/12/29 10:09:06;;;;;;;4.72;1.52;;;4.40;99.90;;;;;;5096978;28;20238;-92
2020/12/29 10:11:32;;;;;;;1.30;1.20;;;4.50;99.90;;;;;;5090598;28;20230;-89
2020/12/29 10:13:59;;;;;;;0.90;0.88;;;4.40;99.90;;;;;;5093297;28;20303;-90
2020/12/29 10:19:23;;;;;;;1.20;1.10;;;3.90;99.90;;;;;;5094846;28;20232;-90
2020/12/29 10:22:10;;;;;;;1.10;1.00;;;3.90;99.90;;;;;;5094095;28;20199;-88
2020/12/29 10:24:37;;;;;;;1.15;0.80;;;4.00;99.90;;;;;;5095687;28;20210;-86
2020/12/29 10:27:10;;;;;;;0.75;0.75;;;3.80;99.90;;;;;;5089684;28;20199;-87
2020/12/29 10:29:38;;;;;;;0.82;0.65;;;4.00;99.90;;;;;;5087420;28;20267;-82
2020/12/29 10:32:04;;;;;;;1.00;0.90;;;3.70;99.90;;;;;;5090423;28;20202;-85
2020/12/29 10:34:32;;;;;;;0.80;0.80;;;3.70;99.90;;;;;;5085490;28;20202;-86
2020/12/29 10:36:58;;;;;;;0.80;0.80;;;4.00;99.90;;;;;;5090977;28;20667;-85
2020/12/29 10:39:25;;;;;;;0.80;0.80;;;3.90;99.90;;;;;;5089089;28;20230;-85
2020/12/29 10:41:51;;;;;;;2.20;1.00;;;4.00;99.90;;;;;;5091021;28;20736;-85
2020/12/29 10:44:18;;;;;;;0.82;0.80;;;4.30;99.90;;;;;;5086609;28;21194;-84
2020/12/29 10:46:47;;;;;;;1.15;1.00;;;4.40;99.90;;;;;;5090791;28;20563;-84
2020/12/29 10:49:13;;;;;;;0.90;0.88;;;4.40;99.90;;;;;;5083623;28;20196;-84
2020/12/29 10:51:41;;;;;;;0.80;0.80;;;4.10;99.90;;;;;;5083599;28;20203;-84
2020/12/29 10:54:07;;;;;;;3.05;2.72;;;4.10;99.90;;;;;;5084572;28;20536;-84
2020/12/29 10:56:35;;;;;;;16.05;12.43;;;4.10;99.90;;;;;;5076973;28;20595;-84
2020/12/29 10:59:04;;;;;;;13.02;8.63;;;4.20;99.90;;;;;;5081665;28;20573;-84
2020/12/29 11:01:31;;;;;;;10.40;9.13;;;4.30;99.90;;;;;;5081936;28;20215;-84
2020/12/29 11:03:57;;;;;;;1.50;1.40;;;4.30;99.90;;;;;;5084735;28;20202;-84
2020/12/29 11:06:24;;;;;;;1.40;1.30;;;4.40;99.90;;;;;;5086083;28;20594;-84
2020/12/29 11:08:52;;;;;;;1.90;1.70;;;4.00;99.90;;;;;;5082660;28;20218;-84
2020/12/29 11:11:19;;;;;;;5.07;4.68;;;4.00;99.90;;;;;;5084088;28;20217;-84
2020/12/29 11:13:46;;;;;;;4.93;3.25;;;4.00;99.90;;;;;;5087504;28;20236;-85
2020/12/29 11:16:17;;;;;;;3.42;2.47;;;4.10;99.90;;;;;;5083366;28;20187;-84
2020/12/29 11:18:45;;;;;;;1.55;1.45;;;4.20;99.90;;;;;;5085543;28;20701;-84
2020/12/29 11:21:11;;;;;;;1.55;1.45;;;4.40;99.90;;;;;;5087427;28;20566;-84
2020/12/29 11:23:41;;;;;;;1.30;0.77;;;4.50;99.90;;;;;;5087617;28;20313;-83
2020/12/29 11:26:08;;;;;;;0.85;0.52;;;4.80;99.90;;;;;;5077097;28;20188;-84
2020/12/29 11:28:35;;;;;;;0.70;0.70;;;4.70;99.90;;;;;;5070909;28;20256;-84
2020/12/29 11:31:01;;;;;;;1.42;0.90;;;4.60;99.90;;;;;;5087382;28;20222;-83
2020/12/29 11:33:28;;;;;;;0.50;0.50;;;4.40;99.90;;;;;;5084415;28;20540;-84
2020/12/29 11:35:54;;;;;;;2.10;2.00;;;4.30;99.90;;;;;;5086365;28;20211;-85
2020/12/29 11:38:21;;;;;;;1.17;1.10;;;4.30;99.90;;;;;;5089704;28;20644;-85
2020/12/29 11:40:48;;;;;;;1.00;0.95;;;4.50;99.90;;;;;;5086910;28;20195;-86
2020/12/29 11:43:16;;;;;;;1.50;1.40;;;4.50;99.90;;;;;;5086185;28;20679;-85
2020/12/29 11:45:43;;;;;;;1.10;1.10;;;4.50;99.90;;;;;;5082881;28;20191;-85
2020/12/29 11:48:11;;;;;;;1.30;0.77;;;4.50;99.90;;;;;;5074929;28;20199;-85
2020/12/29 11:50:37;;;;;;;1.23;1.00;;;4.30;99.90;;;;;;5085420;28;20282;-84
2020/12/29 11:53:04;;;;;;;1.13;1.02;;;4.20;99.90;;;;;;5093313;28;20194;-85
2020/12/29 11:55:30;;;;;;;1.40;1.27;;;4.30;99.90;;;;;;5076457;28;20599;-84
2020/12/29 11:57:57;;;;;;;1.98;1.88;;;4.50;99.90;;;;;;5074959;28;20235;-84
2020/12/29 12:00:24;;;;;;;1.65;1.55;;;4.60;99.50;;;;;;5081419;28;20198;-84
2020/12/29 12:02:50;;;;;;;2.75;2.55;;;4.70;99.90;;;;;;5094874;28;20202;-84
2020/12/29 12:05:17;;;;;;;1.50;1.38;;;4.80;99.30;;;;;;5092556;28;20636;-84
2020/12/29 12:07:43;;;;;;;0.95;0.90;;;5.10;99.70;;;;;;5093729;28;20207;-83
2020/12/29 12:10:12;;;;;;;0.57;0.57;;;5.30;99.90;;;;;;5078211;28;20218;-85
2020/12/29 12:12:39;;;;;;;1.67;0.60;;;5.50;99.70;;;;;;5081055;28;20565;-83
2020/12/29 12:15:06;;;;;;;0.70;0.70;;;5.50;99.70;;;;;;5086254;28;20192;-83
2020/12/29 12:17:33;;;;;;;0.80;0.50;;;5.30;98.30;;;;;;5080030;28;20198;-83
2020/12/29 12:20:00;;;;;;;1.23;0.60;;;5.40;99.00;;;;;;5092852;28;20210;-83
2020/12/29 12:22:26;;;;;;;0.73;0.60;;;5.60;99.10;;;;;;5090306;28;20245;-83
2020/12/29 12:24:53;;;;;;;0.85;0.85;;;5.80;99.20;;;;;;5085367;28;20651;-83
2020/12/29 12:27:19;;;;;;;0.90;0.70;;;5.70;98.80;;;;;;5091362;28;20202;-82
2020/12/29 12:29:45;;;;;;;1.58;0.93;;;5.80;99.00;;;;;;5083780;28;20221;-83
2020/12/29 12:32:12;;;;;;;1.05;0.90;;;6.00;98.90;;;;;;5091549;28;20244;-83
2020/12/29 12:34:39;;;;;;;5.13;3.20;;;5.90;98.60;;;;;;5092758;28;20233;-83
2020/12/29 12:37:06;;;;;;;1.48;1.38;;;5.80;98.10;;;;;;5086778;28;20233;-82
2020/12/29 12:39:32;;;;;;;1.63;1.13;;;5.90;98.80;;;;;;5091337;28;20219;-83
2020/12/29 12:41:59;;;;;;;2.85;2.65;;;5.90;99.00;;;;;;5084709;28;20765;-83
2020/12/29 12:44:25;;;;;;;1.33;1.23;;;5.80;99.90;;;;;;5086421;28;20203;-83
2020/12/29 12:46:51;;;;;;;1.40;1.30;;;5.90;99.90;;;;;;5094788;28;20199;-83
2020/12/29 12:49:18;;;;;;;0.95;0.95;;;6.10;99.90;;;;;;5089785;28;20191;-84
2020/12/29 12:51:49;;;;;;;1.52;1.00;;;6.10;99.30;;;;;;5086301;28;20202;-84
2020/12/29 12:54:15;;;;;;;15.73;2.10;;;5.90;99.30;;;;;;5090791;28;20210;-85
2020/12/29 12:56:45;;;;;;;1.60;1.50;;;5.80;99.90;;;;;;5082979;28;20207;-83
2020/12/29 12:59:12;;;;;;;1.92;1.65;;;5.70;99.70;;;;;;5085212;28;20595;-84
2020/12/29 13:01:39;;;;;;;2.00;1.80;;;5.70;99.50;;;;;;5092486;28;20297;-84
2020/12/29 13:04:06;;;;;;;7.20;3.95;;;5.70;99.30;;;;;;5086675;28;20622;-84
2020/12/29 13:06:33;;;;;;;3.83;1.42;;;5.60;98.90;;;;;;5090899;28;20263;-84
2020/12/29 13:09:01;;;;;;;1.50;1.30;;;5.50;99.50;;;;;;5084256;28;20551;-84